Time;durP1;ratioP1;P1;durP2;ratioP2;P2;SDS_P1;SDS_P2;PMS_P1;PMS_P2;Temp;Humidity;BMP_temperature;BMP_pressure;BME280_temperature;BME280_humidity;BME280_pressure;Samples;Min_cycle;Max_cycle;Signal;HPM_P1;HPM_P2
2022/12/17 13:06:14;;;;;;;13.03;6.20;;;14.10;99.90;;;14.18;72.62;94964.03;5077744;28;20534;-54
2022/12/17 13:08:42;;;;;;;13.10;7.17;;;14.00;99.90;;;14.13;72.58;94968.97;5081115;28;20566;-59
2022/12/17 13:11:27;;;;;;;10.47;6.77;;;14.00;99.90;;;14.04;72.55;94970.75;5080817;28;20472;-54
2022/12/17 13:13:58;;;;;;;10.87;6.13;;;14.00;99.90;;;13.97;72.79;94973.22;5075307;28;20455;-55
2022/12/17 13:16:33;;;;;;;9.73;6.67;;;13.90;99.90;;;13.93;72.81;94973.69;5073938;28;20447;-56
2022/12/17 13:19:15;;;;;;;13.77;7.80;;;13.80;99.90;;;13.89;73.06;94975.78;5079930;28;20534;-58
2022/12/17 13:21:42;;;;;;;10.50;6.47;;;13.80;99.90;;;13.88;73.00;94976.81;5079031;28;20445;-58
2022/12/17 13:24:23;;;;;;;11.50;6.90;;;13.80;99.90;;;13.87;72.92;94969.84;5077212;28;20479;-53
2022/12/17 13:26:50;;;;;;;9.17;6.83;;;13.80;99.90;;;13.87;73.41;94966.38;5079647;28;20442;-53
2022/12/17 13:29:24;;;;;;;11.07;6.80;;;13.80;99.90;;;13.86;73.04;94970.81;5079191;28;20490;-57
2022/12/17 13:32:14;;;;;;;15.43;8.80;;;13.70;99.90;;;13.86;73.17;94977.94;5076741;28;20458;-58
2022/12/17 13:34:54;;;;;;;8.53;6.30;;;13.70;99.90;;;13.84;73.35;94986.03;5076725;28;20478;-59
2022/12/17 13:37:29;;;;;;;7.97;6.83;;;13.70;99.90;;;13.82;73.35;94972.13;5077293;28;20860;-54
2022/12/17 13:40:01;;;;;;;11.10;6.30;;;13.70;99.90;;;13.81;73.39;94979.22;5074100;28;20482;-57
2022/12/17 13:42:29;;;;;;;8.30;6.90;;;13.70;99.90;;;13.78;73.16;94994.56;5076177;28;20827;-54
2022/12/17 13:44:57;;;;;;;13.60;6.80;;;13.70;99.90;;;13.77;73.36;94995.56;5076930;28;20596;-59
2022/12/17 13:47:27;;;;;;;7.90;6.50;;;13.70;99.90;;;13.75;73.25;95003.63;5081476;28;20493;-59
2022/12/17 13:49:57;;;;;;;10.20;6.80;;;13.60;99.90;;;13.74;73.54;95006.44;5079263;28;20549;-58
2022/12/17 13:52:25;;;;;;;8.87;6.77;;;13.60;99.90;;;13.73;73.82;95007.44;5079640;28;20450;-57
2022/12/17 13:54:52;;;;;;;8.30;7.13;;;13.60;99.90;;;13.73;73.71;95013.56;5077788;28;20567;-55
2022/12/17 13:57:21;;;;;;;9.93;6.53;;;13.60;99.90;;;13.73;73.88;95010.91;5075923;28;20458;-56
2022/12/17 13:59:52;;;;;;;15.23;7.20;;;13.60;99.90;;;13.75;73.59;95008.09;5079546;28;21098;-58
2022/12/17 14:02:28;;;;;;;9.57;6.30;;;13.60;99.90;;;13.77;73.61;95008.78;5080705;28;20493;-57
2022/12/17 14:04:57;;;;;;;9.50;6.47;;;13.60;99.90;;;13.78;73.38;95008.63;5077526;28;20475;-55
2022/12/17 14:07:25;;;;;;;10.57;6.47;;;13.60;99.90;;;13.77;73.22;95016.69;5074711;28;20646;-56
2022/12/17 14:09:52;;;;;;;8.07;5.80;;;13.60;99.90;;;13.75;73.42;95016.03;5077930;28;20484;-57
2022/12/17 14:12:22;;;;;;;10.37;7.50;;;13.70;99.90;;;13.74;73.56;95014.38;5079806;28;20450;-55
2022/12/17 14:14:53;;;;;;;11.13;7.67;;;13.60;99.90;;;13.72;73.33;95017.16;5079107;28;20585;-59
2022/12/17 14:17:22;;;;;;;12.93;8.10;;;13.60;99.90;;;13.70;73.49;95018.31;5079567;28;20446;-58
2022/12/17 14:19:56;;;;;;;13.97;7.90;;;13.60;99.90;;;13.69;73.31;95024.59;5084900;28;20478;-54
2022/12/17 14:22:29;;;;;;;11.27;6.57;;;13.60;99.90;;;13.66;73.45;95028.38;5081230;28;20450;-57
2022/12/17 14:24:57;;;;;;;11.90;7.80;;;13.50;99.90;;;13.60;73.16;95028.97;5080636;28;20470;-57
2022/12/17 14:27:26;;;;;;;13.43;8.47;;;13.50;99.90;;;13.58;73.75;95031.78;5082614;28;20877;-57
2022/12/17 14:29:53;;;;;;;14.03;8.20;;;13.50;99.90;;;13.55;73.71;95021.50;5084267;28;20630;-59
2022/12/17 14:32:26;;;;;;;10.87;7.30;;;13.50;99.90;;;13.52;73.40;95029.75;5078086;28;20442;-58
2022/12/17 14:34:54;;;;;;;18.70;7.27;;;13.40;99.90;;;13.51;73.69;95020.19;5083913;28;20469;-57
2022/12/17 14:37:24;;;;;;;13.00;8.13;;;13.40;99.90;;;13.49;73.56;95027.41;5082260;28;20520;-63
2022/12/17 14:40:00;;;;;;;19.13;8.40;;;13.40;99.90;;;13.44;73.98;95035.81;5086004;28;20540;-57
2022/12/17 14:42:28;;;;;;;21.17;8.07;;;13.40;99.90;;;13.44;73.79;95035.81;5085638;28;20918;-59
2022/12/17 14:44:57;;;;;;;14.40;9.27;;;13.30;99.90;;;13.42;73.67;95050.16;5081877;28;20565;-59
2022/12/17 14:47:26;;;;;;;16.83;10.53;;;13.30;99.90;;;13.38;73.43;95051.44;5083323;28;20499;-58
2022/12/17 14:50:08;;;;;;;16.90;10.40;;;13.30;99.90;;;13.34;73.59;95050.09;5084546;28;20462;-59
2022/12/17 14:52:41;;;;;;;18.80;10.50;;;13.20;99.90;;;13.30;73.70;95067.22;5084910;28;20442;-58
2022/12/17 14:55:33;;;;;;;14.23;8.60;;;13.20;99.90;;;13.24;74.20;95072.09;5083740;28;20469;-57
2022/12/17 14:58:19;;;;;;;12.03;8.03;;;13.20;99.90;;;13.21;74.21;95064.47;5081800;28;20459;-53
2022/12/17 15:00:48;;;;;;;12.90;8.17;;;13.10;99.90;;;13.20;74.21;95064.63;5082598;28;20469;-57
2022/12/17 15:03:23;;;;;;;13.30;9.50;;;13.10;99.90;;;13.17;74.53;95068.41;5083428;28;20833;-55
2022/12/17 15:05:55;;;;;;;10.50;7.80;;;13.10;99.90;;;13.13;74.37;95063.59;5083825;28;20453;-57
2022/12/17 15:08:22;;;;;;;11.77;7.70;;;13.00;99.90;;;13.08;73.92;95062.22;5086505;28;20882;-57
2022/12/17 15:10:49;;;;;;;15.47;11.17;;;13.00;99.90;;;13.05;74.47;95067.78;5086842;28;20531;-57
2022/12/17 15:13:17;;;;;;;17.97;10.47;;;13.00;99.90;;;13.02;74.39;95072.56;5082498;28;20955;-56
2022/12/17 15:15:45;;;;;;;17.60;9.73;;;12.90;99.90;;;12.98;73.86;95077.31;5083880;28;20530;-56
2022/12/17 15:18:13;;;;;;;12.80;7.93;;;12.90;99.90;;;12.94;74.38;95081.22;5078465;28;20466;-53
2022/12/17 15:20:40;;;;;;;11.00;8.50;;;12.90;99.90;;;12.89;74.59;95073.75;5081772;28;20474;-56
2022/12/17 15:23:15;;;;;;;13.20;9.27;;;12.80;99.90;;;12.86;74.26;95081.97;5082610;28;20446;-55
2022/12/17 15:25:43;;;;;;;16.27;10.07;;;12.80;99.90;;;12.83;74.61;95082.25;5081523;28;20469;-57
2022/12/17 15:28:10;;;;;;;12.33;8.90;;;12.80;99.90;;;12.83;74.59;95094.63;5082239;28;20508;-55
2022/12/17 15:30:38;;;;;;;15.87;10.50;;;12.70;99.90;;;12.81;74.65;95091.28;5078144;28;20542;-58
2022/12/17 15:33:06;;;;;;;19.73;9.50;;;12.70;99.90;;;12.77;74.80;95089.94;5081367;28;20469;-57
2022/12/17 15:35:33;;;;;;;17.43;10.63;;;12.70;99.90;;;12.73;75.17;95100.81;5081257;28;20559;-56
2022/12/17 15:38:01;;;;;;;14.57;9.17;;;12.60;99.90;;;12.70;74.83;95102.88;5082676;28;20461;-57
2022/12/17 15:40:29;;;;;;;10.10;8.70;;;12.60;99.90;;;12.66;74.85;95096.25;5077869;28;21003;-55
2022/12/17 15:43:10;;;;;;;12.30;9.10;;;12.60;99.90;;;12.60;75.09;95100.31;5076290;28;20455;-58
2022/12/17 15:45:38;;;;;;;15.93;11.67;;;12.60;99.90;;;12.54;74.96;95101.72;5081474;28;20569;-54
2022/12/17 15:48:06;;;;;;;24.53;13.83;;;12.50;99.90;;;12.50;74.86;95094.22;5084516;28;20498;-58
2022/12/17 15:50:33;;;;;;;29.17;16.73;;;12.40;99.90;;;12.45;74.93;95096.50;5077313;28;20527;-56
2022/12/17 15:53:00;;;;;;;30.60;18.07;;;12.40;99.90;;;12.39;75.03;95103.16;5082777;28;20450;-56
2022/12/17 15:55:29;;;;;;;37.70;22.20;;;12.40;99.90;;;12.35;74.85;95101.81;5078148;28;20466;-56
2022/12/17 15:57:56;;;;;;;39.10;25.03;;;12.30;99.90;;;12.30;75.24;95101.41;5077877;28;21085;-57
2022/12/17 16:00:24;;;;;;;40.33;21.10;;;12.20;99.90;;;12.25;75.07;95103.66;5079049;28;20458;-57
2022/12/17 16:02:51;;;;;;;53.00;28.10;;;12.20;99.90;;;12.19;75.00;95119.09;5075120;28;20546;-57
2022/12/17 16:05:19;;;;;;;43.37;24.63;;;12.20;99.90;;;12.14;75.38;95120.47;5081298;28;20993;-55
2022/12/17 16:07:46;;;;;;;41.63;25.30;;;12.10;99.90;;;12.09;75.74;95122.72;5078623;28;20911;-56
2022/12/17 16:10:14;;;;;;;43.60;25.40;;;12.00;99.90;;;12.01;75.66;95120.78;5081651;28;20474;-57
2022/12/17 16:12:42;;;;;;;50.47;26.57;;;12.00;99.90;;;11.93;76.29;95129.41;5078640;28;20466;-55
2022/12/17 16:15:11;;;;;;;47.40;24.07;;;11.90;99.90;;;11.93;75.97;95133.81;5080790;28;20982;-56
2022/12/17 16:17:38;;;;;;;44.30;24.73;;;11.90;99.90;;;11.91;76.20;95136.56;5079201;28;20474;-55
2022/12/17 16:20:07;;;;;;;49.07;27.30;;;11.80;99.90;;;11.90;76.31;95129.66;5078960;28;20474;-54
2022/12/17 16:22:35;;;;;;;40.37;25.67;;;11.90;99.90;;;11.90;76.16;95140.19;5081585;28;20552;-58
2022/12/17 16:25:02;;;;;;;41.77;25.70;;;11.80;99.90;;;11.89;76.16;95143.81;5079288;28;21028;-54
2022/12/17 16:27:29;;;;;;;49.47;29.67;;;11.90;99.90;;;11.88;76.10;95136.84;5078926;28;20814;-57
2022/12/17 16:29:58;;;;;;;52.40;29.07;;;11.80;99.90;;;11.86;76.00;95143.25;5081774;28;20968;-54
2022/12/17 16:32:25;;;;;;;46.43;26.87;;;11.80;99.90;;;11.82;75.69;95146.19;5077595;28;20463;-55
2022/12/17 16:34:52;;;;;;;52.77;29.07;;;11.80;99.90;;;11.78;75.80;95157.97;5077242;28;20474;-57
2022/12/17 16:37:20;;;;;;;49.13;27.20;;;11.80;99.90;;;11.72;75.95;95163.78;5079087;28;20836;-56
2022/12/17 16:39:49;;;;;;;52.73;25.87;;;11.70;99.90;;;11.66;76.26;95159.06;5078373;28;20982;-57
2022/12/17 16:42:16;;;;;;;48.97;28.10;;;11.70;99.90;;;11.63;76.72;95164.63;5077213;28;20911;-56
2022/12/17 16:44:43;;;;;;;50.03;25.90;;;11.60;99.90;;;11.60;76.52;95164.91;5077276;28;21020;-54
2022/12/17 16:47:12;;;;;;;45.53;24.13;;;11.60;99.90;;;11.58;76.59;95169.50;5078807;28;20447;-54
2022/12/17 16:49:39;;;;;;;35.73;23.60;;;11.60;99.90;;;11.54;76.67;95161.03;5077309;28;20493;-58
2022/12/17 16:52:06;;;;;;;50.17;25.40;;;11.50;99.90;;;11.52;76.55;95167.41;5078488;28;20453;-57
2022/12/17 16:54:34;;;;;;;40.77;23.63;;;11.50;99.90;;;11.50;76.79;95164.09;5079479;28;20486;-55
2022/12/17 16:57:01;;;;;;;39.27;23.97;;;11.50;99.90;;;11.48;76.75;95183.50;5077714;28;20958;-58
2022/12/17 16:59:29;;;;;;;30.37;20.40;;;11.40;99.90;;;11.47;76.71;95181.81;5080125;28;20532;-53
2022/12/17 17:01:56;;;;;;;40.37;21.20;;;11.40;99.90;;;11.46;76.98;95185.44;5081156;28;20454;-56
2022/12/17 17:04:25;;;;;;;38.63;19.10;;;11.40;99.90;;;11.47;76.56;95181.81;5080138;28;20556;-57
2022/12/17 17:06:53;;;;;;;34.47;19.63;;;11.40;99.90;;;11.48;77.00;95182.66;5081765;28;20465;-55
2022/12/17 17:09:21;;;;;;;37.40;21.93;;;11.40;99.90;;;11.47;76.72;95186.25;5079116;28;20498;-56
2022/12/17 17:11:48;;;;;;;49.30;24.50;;;11.50;99.90;;;11.46;76.75;95195.97;5080956;28;20454;-59
2022/12/17 17:14:16;;;;;;;37.87;22.50;;;11.40;99.90;;;11.46;76.99;95195.13;5078386;28;21046;-57
2022/12/17 17:16:43;;;;;;;47.87;24.23;;;11.40;99.90;;;11.44;77.10;95195.25;5078355;28;20446;-56
2022/12/17 17:19:10;;;;;;;46.80;23.87;;;11.40;99.90;;;11.44;77.36;95199.69;5073727;28;20954;-57
2022/12/17 17:21:39;;;;;;;70.30;27.67;;;11.40;99.90;;;11.46;77.42;95200.38;5077593;28;20461;-55
2022/12/17 17:24:11;;;;;;;43.10;24.73;;;11.40;99.90;;;11.47;77.14;95209.97;5068685;28;20532;-56
2022/12/17 17:26:38;;;;;;;40.87;24.90;;;11.40;99.90;;;11.45;76.77;95212.72;5078029;28;20442;-58
2022/12/17 17:29:06;;;;;;;44.70;23.40;;;11.40;99.90;;;11.44;76.67;95221.59;5071539;28;20866;-58
2022/12/17 17:31:33;;;;;;;40.13;22.53;;;11.40;99.90;;;11.41;76.74;95216.59;5080044;28;20507;-56
2022/12/17 17:34:01;;;;;;;39.00;21.47;;;11.40;99.90;;;11.40;77.09;95220.22;5074668;28;20459;-55
2022/12/17 17:36:29;;;;;;;39.43;24.23;;;11.30;99.90;;;11.38;76.94;95234.47;5081173;28;20454;-57
2022/12/17 17:38:59;;;;;;;40.20;24.20;;;11.40;99.90;;;11.36;76.95;95229.34;5073180;28;20494;-58
2022/12/17 17:41:27;;;;;;;37.37;23.60;;;11.30;99.90;;;11.36;76.93;95239.88;5079417;28;20974;-58
2022/12/17 17:43:55;;;;;;;33.80;21.53;;;11.30;99.90;;;11.34;77.03;95244.47;5076145;28;20898;-56
2022/12/17 17:46:23;;;;;;;41.20;23.13;;;11.30;99.90;;;11.33;77.13;95248.06;5075750;28;20482;-55
2022/12/17 17:48:50;;;;;;;78.73;32.73;;;11.30;99.90;;;11.31;76.91;95250.00;5079025;28;21069;-56
2022/12/17 17:51:19;;;;;;;57.53;28.20;;;11.30;99.90;;;11.28;77.14;95245.81;5075906;28;20481;-56
2022/12/17 17:53:47;;;;;;;64.77;30.77;;;11.30;99.90;;;11.27;77.20;95254.69;5078751;28;20459;-53
2022/12/17 17:56:17;;;;;;;49.70;26.10;;;11.20;99.90;;;11.27;76.94;95267.84;5086515;28;20465;-54
2022/12/17 17:58:45;;;;;;;54.47;31.70;;;11.30;99.90;;;11.25;77.02;95266.34;5079011;28;20833;-56
2022/12/17 18:01:14;;;;;;;53.83;27.40;;;11.20;99.90;;;11.23;77.14;95269.09;5083304;28;20486;-59
2022/12/17 18:03:41;;;;;;;40.77;24.40;;;11.20;99.90;;;11.21;77.28;95272.84;5083694;28;20827;-58
2022/12/17 18:06:10;;;;;;;46.13;24.13;;;11.20;99.90;;;11.19;77.10;95280.03;5083808;28;20482;-57
2022/12/17 18:08:38;;;;;;;29.90;18.13;;;11.20;99.90;;;11.16;77.18;95288.19;5085062;28;20804;-56
2022/12/17 18:11:07;;;;;;;31.37;18.00;;;11.10;99.90;;;11.10;77.27;95290.38;5081075;28;20586;-57
2022/12/17 18:16:20;;;;;;;24.07;16.40;;;11.00;99.90;;;11.02;77.37;95298.13;5084916;28;20551;-55
2022/12/17 18:18:47;;;;;;;29.63;19.00;;;11.00;99.90;;;11.01;77.35;95306.13;5086757;28;20461;-56
2022/12/17 18:21:16;;;;;;;26.50;17.37;;;11.00;99.90;;;11.00;77.32;95313.22;5084442;28;20477;-58
2022/12/17 18:23:43;;;;;;;23.67;17.20;;;11.00;99.90;;;10.98;77.38;95317.75;5086266;28;20445;-58
2022/12/17 18:26:12;;;;;;;21.93;11.07;;;10.90;99.90;;;10.98;77.56;95315.13;5088169;28;20465;-58
2022/12/17 18:28:41;;;;;;;14.40;9.50;;;11.00;99.90;;;10.98;77.54;95317.75;5088284;28;20465;-57
2022/12/17 18:31:10;;;;;;;13.50;9.40;;;10.90;99.90;;;10.97;77.36;95317.88;5084106;28;20470;-57
2022/12/17 18:33:39;;;;;;;12.20;9.80;;;10.90;99.90;;;10.96;77.60;95317.06;5085004;28;20461;-55
2022/12/17 18:36:11;;;;;;;13.73;9.40;;;10.90;99.90;;;10.96;77.51;95321.50;5084607;28;20468;-58
2022/12/17 18:38:39;;;;;;;15.23;10.13;;;10.90;99.90;;;10.96;77.64;95329.41;5086412;28;20488;-55
2022/12/17 18:43:22;;;;;;;11.10;9.63;;;10.90;99.90;;;10.97;77.49;95331.91;5080738;28;20477;-56
2022/12/17 18:44:00;;;;;;;13.37;8.57;;;10.90;99.90;;;10.94;77.45;95337.44;5083426;28;20442;-54
2022/12/17 18:46:27;;;;;;;14.63;8.50;;;10.90;99.90;;;10.93;77.77;95352.38;5080183;28;20477;-58
2022/12/17 18:48:57;;;;;;;13.90;10.07;;;10.90;99.90;;;10.93;78.07;95356.81;5084251;28;20453;-55
2022/12/17 18:51:24;;;;;;;12.40;9.67;;;10.90;99.90;;;10.92;77.80;95355.13;5086773;28;20499;-57
2022/12/17 18:53:53;;;;;;;13.20;9.67;;;10.90;99.90;;;10.93;78.11;95359.44;5083671;28;20458;-58
2022/12/17 18:56:20;;;;;;;14.43;8.97;;;10.90;99.90;;;10.94;77.89;95364.56;5087049;28;20461;-58
2022/12/17 18:58:47;;;;;;;12.33;9.87;;;10.90;99.90;;;10.94;77.81;95369.00;5084885;28;20446;-58
2022/12/17 19:01:24;;;;;;;20.27;10.27;;;10.90;99.90;;;10.96;77.66;95372.34;5085121;28;20859;-56
2022/12/17 19:03:51;;;;;;;14.03;9.10;;;10.90;99.90;;;10.96;77.81;95377.59;5086992;28;20853;-56
2022/12/17 19:06:19;;;;;;;11.73;8.50;;;10.90;99.90;;;10.94;77.88;95379.53;5079917;28;20509;-57
2022/12/17 19:08:46;;;;;;;18.80;8.80;;;10.90;99.90;;;10.94;77.60;95379.53;5079738;28;20854;-53
2022/12/17 19:11:14;;;;;;;12.03;8.97;;;10.90;99.90;;;10.96;77.61;95388.13;5080473;28;20463;-58
2022/12/17 19:13:41;;;;;;;14.67;9.30;;;10.90;99.90;;;10.96;77.80;95393.38;5084464;28;20461;-59
2022/12/17 19:16:11;;;;;;;9.17;8.03;;;10.90;99.90;;;10.96;77.86;95392.56;5080220;28;20475;-54
2022/12/17 19:18:39;;;;;;;9.27;7.90;;;10.90;99.90;;;10.94;77.70;95400.59;5082408;28;20458;-58
2022/12/17 19:21:07;;;;;;;15.20;8.97;;;10.90;99.90;;;10.94;77.57;95398.78;5076668;28;20513;-55
2022/12/17 19:23:35;;;;;;;11.57;10.07;;;10.90;99.90;;;10.93;77.43;95394.47;5084069;28;20516;-58
2022/12/17 19:26:06;;;;;;;10.13;8.90;;;10.90;99.90;;;10.94;77.66;95408.47;5080580;28;20478;-58
2022/12/17 19:28:33;;;;;;;18.93;10.43;;;10.90;99.90;;;10.94;77.22;95411.13;5083145;28;20531;-56
2022/12/17 19:31:01;;;;;;;14.00;8.93;;;10.90;99.90;;;10.93;77.31;95414.69;5080288;28;20512;-56
2022/12/17 19:33:28;;;;;;;16.40;10.23;;;10.90;99.90;;;10.91;77.59;95414.84;5081995;28;20852;-54
2022/12/17 19:36:04;;;;;;;12.70;9.73;;;10.90;99.90;;;10.91;77.58;95416.63;5081005;28;20485;-58
2022/12/17 19:38:32;;;;;;;16.33;9.70;;;10.90;99.90;;;10.91;77.73;95427.16;5081385;28;20442;-57
2022/12/17 19:41:04;;;;;;;9.07;8.13;;;10.90;99.90;;;10.90;77.49;95420.22;5083090;28;20478;-55
2022/12/17 19:43:31;;;;;;;11.43;10.23;;;10.90;99.90;;;10.91;77.61;95416.63;5080319;28;21055;-58
2022/12/17 19:46:03;;;;;;;11.60;8.60;;;10.90;99.90;;;10.91;77.53;95427.16;5084261;28;20462;-57
2022/12/17 19:48:32;;;;;;;9.83;8.83;;;10.90;99.90;;;10.91;77.40;95428.00;5074486;28;20557;-53
2022/12/17 19:50:59;;;;;;;10.73;8.97;;;10.90;99.90;;;10.91;77.39;95427.16;5083475;28;20505;-57
2022/12/17 19:53:28;;;;;;;10.50;9.47;;;10.90;99.90;;;10.91;77.22;95428.00;5079257;28;20466;-56
2022/12/17 19:55:55;;;;;;;12.73;10.00;;;10.90;99.90;;;10.89;77.21;95429.94;5083326;28;20573;-58
2022/12/17 19:58:23;;;;;;;17.70;10.07;;;10.90;99.90;;;10.89;77.24;95429.94;5073668;28;20459;-58
2022/12/17 20:00:50;;;;;;;12.43;9.30;;;10.90;99.90;;;10.89;77.36;95429.94;5082666;28;20553;-52
2022/12/17 20:03:17;;;;;;;18.60;9.30;;;10.80;99.90;;;10.88;77.08;95441.41;5079797;28;20446;-57
2022/12/17 20:05:45;;;;;;;16.00;9.73;;;10.80;99.90;;;10.86;77.10;95437.22;5082614;28;20506;-56
2022/12/17 20:08:12;;;;;;;14.50;9.80;;;10.80;99.90;;;10.84;76.78;95436.53;5079257;28;20459;-55
2022/12/17 20:10:41;;;;;;;15.50;10.70;;;10.80;99.90;;;10.81;76.83;95442.88;5081864;28;20494;-56
2022/12/17 20:13:08;;;;;;;14.63;10.10;;;10.80;99.90;;;10.78;76.86;95453.63;5080584;28;20447;-55
2022/12/17 20:15:35;;;;;;;14.43;10.80;;;10.80;99.90;;;10.78;76.88;95453.63;5081082;28;20474;-55
2022/12/17 20:18:03;;;;;;;10.70;9.57;;;10.70;99.90;;;10.76;76.93;95459.03;5084764;28;20458;-55
2022/12/17 20:20:30;;;;;;;16.07;10.93;;;10.70;99.90;;;10.74;76.89;95458.34;5081828;28;20472;-58
2022/12/17 20:22:57;;;;;;;11.87;9.30;;;10.70;99.90;;;10.73;76.88;95467.19;5080088;28;20454;-57
2022/12/17 20:25:25;;;;;;;11.57;9.90;;;10.70;99.90;;;10.73;76.91;95466.34;5080024;28;20489;-58
2022/12/17 20:27:53;;;;;;;19.33;11.03;;;10.70;99.90;;;10.71;76.73;95470.91;5080096;28;20587;-58
2022/12/17 20:30:25;;;;;;;18.57;10.70;;;10.70;99.90;;;10.70;76.73;95477.94;5081081;28;20968;-57
2022/12/17 20:32:53;;;;;;;13.83;9.63;;;10.70;99.90;;;10.69;76.52;95478.06;5080286;28;20484;-57
2022/12/17 20:35:21;;;;;;;16.83;9.77;;;10.70;99.90;;;10.69;76.35;95472.81;5079963;28;20475;-58
2022/12/17 20:37:48;;;;;;;13.10;10.50;;;10.60;99.90;;;10.66;76.57;95471.28;5081605;28;20542;-56
2022/12/17 20:40:15;;;;;;;15.33;10.20;;;10.60;99.90;;;10.67;76.38;95485.28;5081107;28;20543;-58
2022/12/17 20:42:42;;;;;;;15.83;10.00;;;10.60;99.90;;;10.63;76.32;95484.69;5078586;28;20458;-58
2022/12/17 20:45:11;;;;;;;19.13;10.43;;;10.60;99.90;;;10.62;76.47;95495.34;5079574;28;20478;-58
2022/12/17 20:47:39;;;;;;;17.43;10.10;;;10.60;99.90;;;10.61;76.38;95497.13;5074517;28;20451;-58
2022/12/17 20:50:07;;;;;;;14.77;10.10;;;10.60;99.90;;;10.59;76.38;95496.41;5078263;28;20879;-55
2022/12/17 20:52:35;;;;;;;13.20;10.23;;;10.60;99.90;;;10.57;76.34;95509.69;5083100;28;20450;-56
2022/12/17 20:55:02;;;;;;;13.37;9.17;;;10.50;99.90;;;10.57;76.18;95514.13;5079913;28;21030;-56
2022/12/17 20:57:29;;;;;;;10.37;8.93;;;10.60;99.90;;;10.56;76.27;95509.81;5082236;28;20458;-57
2022/12/17 20:59:56;;;;;;;12.67;8.80;;;10.50;99.90;;;10.55;76.24;95519.50;5082098;28;20475;-54
2022/12/17 21:02:25;;;;;;;9.03;8.03;;;10.50;99.90;;;10.52;76.12;95519.75;5077722;28;20451;-57
2022/12/17 21:04:52;;;;;;;13.77;9.33;;;10.50;99.90;;;10.50;76.11;95523.47;5077001;28;20493;-59
2022/12/17 21:07:20;;;;;;;11.87;9.23;;;10.50;99.90;;;10.50;76.05;95526.09;5075778;28;20485;-58
2022/12/17 21:09:47;;;;;;;9.37;8.47;;;10.50;99.90;;;10.50;76.23;95540.09;5076229;28;20494;-58
2022/12/17 21:12:14;;;;;;;12.10;8.63;;;10.50;99.90;;;10.51;76.07;95530.41;5080321;28;20450;-56
2022/12/17 21:14:42;;;;;;;12.00;7.97;;;10.50;99.90;;;10.50;75.79;95531.34;5080591;28;21051;-55
2022/12/17 21:17:09;;;;;;;14.43;8.90;;;10.50;99.90;;;10.51;75.96;95533.03;5078337;28;20466;-58
2022/12/17 21:19:38;;;;;;;21.30;9.00;;;10.50;99.90;;;10.50;75.75;95544.50;5079469;28;20482;-56
2022/12/17 21:22:05;;;;;;;11.30;8.70;;;10.50;99.90;;;10.50;75.53;95545.34;5076632;28;21004;-55
2022/12/17 21:24:32;;;;;;;10.67;8.10;;;10.50;99.90;;;10.49;75.53;95548.94;5078003;28;20478;-58
2022/12/17 21:27:00;;;;;;;10.30;8.50;;;10.50;99.90;;;10.48;75.22;95539.38;5076927;28;20459;-55
2022/12/17 21:29:27;;;;;;;9.90;7.37;;;10.50;99.90;;;10.46;75.53;95549.19;5073782;28;21030;-55
2022/12/17 21:31:54;;;;;;;10.33;8.37;;;10.50;99.90;;;10.44;75.29;95558.13;5080696;28;20450;-55
2022/12/17 21:34:24;;;;;;;8.23;6.80;;;10.40;99.90;;;10.40;75.36;95550.50;5078314;28;21001;-58
2022/12/17 21:36:52;;;;;;;8.37;7.10;;;10.40;99.90;;;10.38;75.24;95557.69;5080915;28;20462;-58
2022/12/17 21:39:19;;;;;;;8.27;7.43;;;10.40;99.90;;;10.36;75.00;95567.50;5077411;28;20459;-56
2022/12/17 21:43:00;;;;;;;10.73;7.50;;;10.40;99.90;;;10.35;75.11;95559.72;5082758;28;20524;-55
2022/12/17 21:44:35;;;;;;;6.97;6.30;;;10.30;99.90;;;10.34;74.84;95568.56;5072155;28;20477;-58
2022/12/17 21:47:02;;;;;;;7.13;6.37;;;10.30;99.90;;;10.31;74.87;95566.97;5079262;28;20470;-58
2022/12/17 21:49:29;;;;;;;7.33;5.87;;;10.30;99.90;;;10.28;74.51;95566.38;5073577;28;20474;-58
2022/12/17 21:51:58;;;;;;;6.50;5.90;;;10.30;99.90;;;10.25;74.47;95572.69;5080470;28;20864;-57
2022/12/17 21:54:26;;;;;;;9.07;6.13;;;10.30;99.90;;;10.23;74.58;95577.25;5084311;28;20557;-57
2022/12/17 21:56:53;;;;;;;6.03;5.47;;;10.30;99.90;;;10.20;74.38;95574.88;5075694;28;20466;-56
2022/12/17 21:59:20;;;;;;;6.37;5.77;;;10.20;99.90;;;10.17;74.31;95581.19;5080977;28;20600;-54
2022/12/17 22:01:48;;;;;;;8.47;6.07;;;10.20;99.90;;;10.15;74.11;95577.03;5082615;28;20465;-58
2022/12/17 22:04:15;;;;;;;6.90;4.90;;;10.20;99.90;;;10.13;73.82;95582.41;5076653;28;20454;-59
2022/12/17 22:06:42;;;;;;;5.67;4.93;;;10.10;99.90;;;10.12;73.69;95587.78;5079594;28;20493;-55
2022/12/17 22:09:11;;;;;;;6.43;5.30;;;10.10;99.90;;;10.08;73.90;95592.41;5073420;28;20450;-55
2022/12/17 22:11:38;;;;;;;5.50;4.50;;;10.10;99.90;;;10.08;73.84;95591.59;5075905;28;20571;-59
2022/12/17 22:14:05;;;;;;;5.17;4.73;;;10.10;99.90;;;10.07;73.85;95589.91;5080782;28;20515;-54
2022/12/17 22:16:34;;;;;;;4.73;4.33;;;10.10;99.90;;;10.04;73.79;95589.19;5077297;28;20508;-59
2022/12/17 22:19:02;;;;;;;4.37;4.07;;;10.10;99.90;;;10.02;73.70;95588.50;5075656;28;20469;-59
2022/12/17 22:21:32;;;;;;;5.07;4.57;;;10.00;99.90;;;9.98;73.56;95583.59;5072223;28;20450;-58
2022/12/17 22:24:00;;;;;;;4.90;4.33;;;10.00;99.90;;;9.96;73.53;95594.22;5081486;28;20442;-58
2022/12/17 22:26:28;;;;;;;4.97;4.47;;;10.00;99.90;;;9.95;73.57;95589.09;5077057;28;20455;-58
2022/12/17 22:28:56;;;;;;;4.83;4.20;;;9.90;99.90;;;9.94;73.35;95585.59;5077925;28;20446;-58
2022/12/17 22:34:10;;;;;;;2.90;2.70;;;10.00;99.90;;;9.87;73.10;95600.19;5074034;28;20826;-56
2022/12/17 22:36:37;;;;;;;3.50;3.30;;;9.90;99.90;;;9.83;72.98;95598.72;5076116;28;20450;-55
2022/12/17 22:39:06;;;;;;;4.37;3.97;;;9.90;99.90;;;9.79;72.49;95602.53;5078238;28;20453;-57
2022/12/17 22:44:20;;;;;;;3.77;3.47;;;9.80;99.90;;;9.72;72.83;95617.13;5082852;28;20518;-60
2022/12/17 22:46:48;;;;;;;4.73;4.33;;;9.70;99.90;;;9.68;72.68;95613.84;5086633;28;20442;-54
2022/12/17 22:49:15;;;;;;;3.93;3.43;;;9.70;99.90;;;9.62;72.56;95616.94;5084461;28;20515;-56
2022/12/17 22:51:43;;;;;;;4.97;4.50;;;9.70;99.90;;;9.59;72.46;95620.66;5082630;28;21074;-57
2022/12/17 22:54:13;;;;;;;5.47;4.50;;;9.60;99.90;;;9.58;72.57;95623.41;5083310;28;20450;-58
2022/12/17 22:56:42;;;;;;;4.43;4.13;;;9.60;99.90;;;9.54;72.57;95625.41;5086866;28;20461;-56
2022/12/17 22:59:10;;;;;;;4.47;4.07;;;9.60;99.90;;;9.50;72.20;95623.97;5078616;28;20446;-57
2022/12/17 23:01:37;;;;;;;3.73;3.30;;;9.50;99.90;;;9.46;71.99;95631.22;5085126;28;20446;-56
2022/12/17 23:04:05;;;;;;;4.40;3.97;;;9.50;99.90;;;9.42;72.47;95628.94;5081906;28;20449;-54
2022/12/17 23:06:32;;;;;;;3.97;3.67;;;9.50;99.90;;;9.38;72.36;95635.38;5080813;28;20457;-55
2022/12/17 23:09:00;;;;;;;4.33;3.93;;;9.40;99.90;;;9.33;72.23;95644.44;5084306;28;20450;-58
2022/12/17 23:11:27;;;;;;;4.80;4.33;;;9.40;99.90;;;9.32;72.74;95641.91;5079645;28;20597;-57
2022/12/17 23:13:56;;;;;;;4.23;3.83;;;9.30;99.90;;;9.30;72.07;95643.81;5082534;28;20450;-55
2022/12/17 23:16:23;;;;;;;3.80;3.53;;;9.30;99.90;;;9.28;72.34;95653.59;5080793;28;20533;-54
2022/12/17 23:18:51;;;;;;;5.03;4.20;;;9.30;99.90;;;9.25;72.38;95654.66;5082653;28;20465;-58
2022/12/17 23:21:21;;;;;;;5.47;4.50;;;9.30;99.90;;;9.21;71.58;95663.69;5079719;28;20477;-53
2022/12/17 23:23:48;;;;;;;4.90;4.40;;;9.30;99.90;;;9.17;71.71;95662.28;5083040;28;20450;-54
2022/12/17 23:26:17;;;;;;;5.17;4.73;;;9.20;99.90;;;9.12;71.82;95665.22;5076721;28;20470;-56
2022/12/17 23:28:45;;;;;;;5.70;4.93;;;9.20;99.90;;;9.09;72.02;95673.31;5083689;28;20500;-52
2022/12/17 23:31:15;;;;;;;6.57;5.93;;;9.10;99.90;;;9.05;72.22;95676.28;5076372;28;20551;-57
2022/12/17 23:33:42;;;;;;;5.20;4.70;;;9.10;99.90;;;9.01;72.00;95674.81;5083499;28;20457;-57